Time;durP1;ratioP1;P1;durP2;ratioP2;P2;SDS_P1;SDS_P2;PMS_P1;PMS_P2;Temp;Humidity;BMP_temperature;BMP_pressure;BME280_temperature;BME280_humidity;BME280_pressure;Samples;Min_cycle;Max_cycle;Signal;HPM_P1;HPM_P2
2022/03/10 00:00:09;;;;;;;21.80;14.23;;;6.30;53.40;;;;;;5010639;28;20113;-66
2022/03/10 00:02:35;;;;;;;24.45;16.33;;;6.30;53.30;;;;;;5028246;28;20029;-65
2022/03/10 00:05:00;;;;;;;28.08;16.20;;;6.30;53.50;;;;;;5028172;28;20060;-66
2022/03/10 00:07:26;;;;;;;27.02;15.13;;;6.30;53.60;;;;;;5028229;28;20026;-66
2022/03/10 00:09:51;;;;;;;25.63;14.75;;;6.30;53.80;;;;;;5025613;28;20352;-66
2022/03/10 00:12:18;;;;;;;25.65;15.85;;;6.20;54.50;;;;;;5027906;28;20021;-65
2022/03/10 00:14:43;;;;;;;25.17;14.73;;;6.20;53.90;;;;;;5025648;28;20025;-66
2022/03/10 00:17:09;;;;;;;25.48;15.90;;;6.20;54.00;;;;;;5028243;28;20358;-66
2022/03/10 00:19:34;;;;;;;24.73;15.70;;;6.20;54.00;;;;;;5019831;28;20034;-66
2022/03/10 00:22:00;;;;;;;25.38;16.00;;;6.10;54.10;;;;;;5022811;28;20032;-66
2022/03/10 00:24:26;;;;;;;28.00;16.13;;;6.10;54.30;;;;;;5007458;28;20461;-66
2022/03/10 00:26:51;;;;;;;23.55;15.15;;;6.10;54.40;;;;;;5028127;28;20103;-65
2022/03/10 00:29:17;;;;;;;26.17;15.60;;;6.00;54.40;;;;;;5027679;28;20378;-66
2022/03/10 00:31:43;;;;;;;24.75;15.52;;;6.00;54.50;;;;;;5028036;28;20022;-66
2022/03/10 00:34:09;;;;;;;25.50;15.73;;;5.90;54.70;;;;;;5028069;28;20036;-66
2022/03/10 00:36:34;;;;;;;23.88;15.50;;;5.90;54.90;;;;;;5007482;28;20436;-65
2022/03/10 00:39:00;;;;;;;23.95;15.02;;;5.90;55.00;;;;;;4991331;28;20478;-66
2022/03/10 00:41:25;;;;;;;25.38;15.52;;;5.80;55.10;;;;;;5027988;28;20537;-66
2022/03/10 00:43:51;;;;;;;24.83;14.80;;;5.80;55.20;;;;;;5027700;28;20025;-65
2022/03/10 00:46:16;;;;;;;25.15;14.77;;;5.80;55.40;;;;;;5004430;28;20361;-65
2022/03/10 00:48:42;;;;;;;25.67;15.38;;;5.80;55.50;;;;;;5027947;28;20064;-66
2022/03/10 00:51:08;;;;;;;26.25;15.85;;;5.70;55.70;;;;;;5027417;28;20061;-66
2022/03/10 00:53:34;;;;;;;21.95;13.45;;;5.70;55.90;;;;;;5025259;28;20322;-65
2022/03/10 00:56:00;;;;;;;29.55;15.52;;;5.60;56.10;;;;;;5028220;28;20029;-64
2022/03/10 00:58:25;;;;;;;27.35;16.88;;;5.60;56.10;;;;;;5027837;28;20661;-66
2022/03/10 01:00:54;;;;;;;24.48;14.48;;;5.50;56.30;;;;;;5026382;28;20094;-66
2022/03/10 01:03:20;;;;;;;26.15;15.02;;;5.50;56.30;;;;;;5030795;28;20013;-66
2022/03/10 01:05:46;;;;;;;24.67;14.80;;;5.50;56.50;;;;;;5029786;28;20033;-64
2022/03/10 01:08:13;;;;;;;24.70;15.50;;;5.50;56.50;;;;;;5031557;28;20026;-66
2022/03/10 01:10:39;;;;;;;22.77;13.68;;;5.50;56.50;;;;;;5031135;28;20030;-66
2022/03/10 01:13:12;;;;;;;26.95;15.93;;;5.50;56.60;;;;;;5031256;28;20021;-66
2022/03/10 01:15:38;;;;;;;25.33;13.90;;;5.50;56.70;;;;;;5031152;28;20407;-66
2022/03/10 01:18:03;;;;;;;22.92;14.50;;;5.50;56.80;;;;;;5031364;28;20017;-66
2022/03/10 01:20:29;;;;;;;22.25;14.10;;;5.40;56.70;;;;;;5017430;28;20400;-65
2022/03/10 01:22:55;;;;;;;25.92;16.58;;;5.40;56.90;;;;;;5028583;28;20566;-66
2022/03/10 01:25:20;;;;;;;25.50;14.35;;;5.40;57.10;;;;;;5028211;28;20061;-66
2022/03/10 01:27:46;;;;;;;22.23;13.75;;;5.40;57.20;;;;;;5030984;28;20025;-65
2022/03/10 01:30:13;;;;;;;27.13;14.90;;;5.30;57.30;;;;;;5013323;28;20018;-66
2022/03/10 01:32:39;;;;;;;22.60;14.15;;;5.40;57.50;;;;;;5030782;28;20033;-65
2022/03/10 01:35:06;;;;;;;25.15;14.48;;;5.30;57.50;;;;;;5030928;28;20480;-65
2022/03/10 01:37:36;;;;;;;22.38;14.13;;;5.30;57.60;;;;;;5010395;28;20374;-65
2022/03/10 01:40:06;;;;;;;22.00;14.15;;;5.30;57.60;;;;;;5028255;28;20029;-65
2022/03/10 01:42:31;;;;;;;26.30;15.25;;;5.30;57.60;;;;;;5028130;28;20080;-65
2022/03/10 01:44:57;;;;;;;21.77;13.82;;;5.30;57.80;;;;;;5027882;28;20030;-64
2022/03/10 01:47:23;;;;;;;26.60;14.32;;;5.30;57.90;;;;;;5007729;28;20104;-65
2022/03/10 01:49:48;;;;;;;22.77;14.95;;;5.20;58.10;;;;;;5030705;28;20017;-66
2022/03/10 01:52:15;;;;;;;24.35;14.77;;;5.20;58.30;;;;;;5031049;28;20049;-66
2022/03/10 01:54:41;;;;;;;25.27;14.90;;;5.10;59.10;;;;;;5027788;28;20063;-65
2022/03/10 01:57:07;;;;;;;25.90;15.65;;;5.10;58.70;;;;;;5030682;28;20116;-65
2022/03/10 01:59:33;;;;;;;25.00;15.38;;;5.10;58.70;;;;;;5027955;28;20113;-65
2022/03/10 02:01:59;;;;;;;22.55;14.27;;;5.10;58.80;;;;;;5030146;28;20030;-65
2022/03/10 02:04:24;;;;;;;25.33;14.70;;;5.10;58.80;;;;;;5030141;28;20075;-64
2022/03/10 02:06:51;;;;;;;25.58;15.98;;;5.10;59.10;;;;;;5028277;28;20025;-65
2022/03/10 02:12:01;;;;;;;26.95;15.43;;;4.90;59.70;;;;;;5027785;28;20107;-65
2022/03/10 02:17:20;;;;;;;23.40;15.10;;;4.80;60.60;;;;;;5029099;28;20060;-66
2022/03/10 02:19:49;;;;;;;26.10;15.98;;;4.90;60.30;;;;;;5027549;28;20116;-65
2022/03/10 02:22:14;;;;;;;28.38;15.38;;;4.80;61.00;;;;;;5029975;28;20032;-66
2022/03/10 02:24:42;;;;;;;30.17;15.27;;;4.80;60.40;;;;;;5027077;28;20038;-67
2022/03/10 02:27:20;;;;;;;27.10;16.02;;;4.70;60.50;;;;;;5029953;28;20090;-66
2022/03/10 02:29:50;;;;;;;26.20;15.20;;;4.70;60.80;;;;;;5029912;28;20479;-68
2022/03/10 02:32:17;;;;;;;25.90;15.82;;;4.60;61.10;;;;;;5029956;28;20029;-67
2022/03/10 02:34:43;;;;;;;28.30;16.30;;;4.60;61.30;;;;;;5030604;28;20112;-65
2022/03/10 02:37:09;;;;;;;25.77;15.70;;;4.50;61.60;;;;;;5029628;28;20022;-64
2022/03/10 02:39:36;;;;;;;27.95;15.88;;;4.50;61.70;;;;;;5011727;28;20029;-64
2022/03/10 02:42:02;;;;;;;22.75;14.80;;;4.50;61.80;;;;;;5023604;28;20082;-65
2022/03/10 02:44:28;;;;;;;26.83;15.82;;;4.50;61.90;;;;;;5027835;28;20383;-65
2022/03/10 02:46:53;;;;;;;25.02;15.70;;;4.50;61.90;;;;;;5029552;28;20022;-65
2022/03/10 02:49:19;;;;;;;25.17;15.63;;;4.50;62.00;;;;;;5011432;28;20750;-65
2022/03/10 02:51:45;;;;;;;25.05;15.82;;;4.50;62.00;;;;;;5029360;28;20548;-65
2022/03/10 02:54:11;;;;;;;26.02;16.42;;;4.50;62.10;;;;;;5022590;28;20025;-66
2022/03/10 02:56:37;;;;;;;24.60;15.32;;;4.40;62.00;;;;;;5029224;28;20450;-67
2022/03/10 02:59:03;;;;;;;25.92;14.98;;;4.50;62.00;;;;;;5023821;28;20465;-65
2022/03/10 03:01:29;;;;;;;27.02;15.40;;;4.50;62.00;;;;;;5029182;28;20108;-65
2022/03/10 03:03:55;;;;;;;25.52;16.80;;;4.40;62.00;;;;;;5011391;28;20029;-67
2022/03/10 03:06:20;;;;;;;27.52;16.13;;;4.50;62.00;;;;;;5028893;28;20100;-66
2022/03/10 03:08:46;;;;;;;27.17;15.50;;;4.40;61.90;;;;;;5029316;28;20113;-66
2022/03/10 03:11:12;;;;;;;24.73;15.85;;;4.40;61.90;;;;;;5026423;28;20097;-67
2022/03/10 03:13:37;;;;;;;24.08;15.32;;;4.40;61.80;;;;;;5025996;28;20056;-66
2022/03/10 03:16:03;;;;;;;22.08;14.73;;;4.40;61.70;;;;;;5029164;28;20044;-65
2022/03/10 03:18:28;;;;;;;26.52;15.98;;;4.40;61.60;;;;;;5029132;28;20056;-64
2022/03/10 03:20:54;;;;;;;26.42;15.63;;;4.40;61.60;;;;;;5028647;28;20056;-65
2022/03/10 03:23:19;;;;;;;25.20;13.75;;;4.40;61.50;;;;;;5028317;28;20412;-65
2022/03/10 03:25:45;;;;;;;22.95;14.18;;;4.40;61.40;;;;;;5028934;28;20112;-65
2022/03/10 03:28:10;;;;;;;25.13;14.85;;;4.40;61.30;;;;;;5028937;28;20064;-64
2022/03/10 03:30:36;;;;;;;25.98;16.25;;;4.40;61.20;;;;;;5028530;28;20036;-65
2022/03/10 03:33:02;;;;;;;28.02;15.20;;;4.40;61.30;;;;;;5027176;28;20125;-65
2022/03/10 03:35:27;;;;;;;27.75;16.13;;;4.30;61.30;;;;;;5029475;28;20109;-65
2022/03/10 03:37:53;;;;;;;30.20;15.40;;;4.30;61.50;;;;;;5026500;28;20047;-65
2022/03/10 03:40:18;;;;;;;26.20;15.38;;;4.30;61.50;;;;;;5025027;28;20546;-65
2022/03/10 03:42:44;;;;;;;27.42;14.77;;;4.30;61.50;;;;;;5005489;28;20021;-65
2022/03/10 03:45:10;;;;;;;24.05;14.43;;;4.30;61.60;;;;;;5028319;28;20036;-65
2022/03/10 03:47:36;;;;;;;24.42;14.57;;;4.30;61.60;;;;;;5020332;28;20494;-66
2022/03/10 03:50:02;;;;;;;24.83;14.85;;;4.20;61.60;;;;;;5028963;28;20027;-66
2022/03/10 03:52:28;;;;;;;26.52;17.10;;;4.20;61.70;;;;;;5028302;28;20038;-65
2022/03/10 03:54:53;;;;;;;26.95;15.98;;;4.20;61.70;;;;;;5028570;28;20418;-65
2022/03/10 03:57:19;;;;;;;24.70;14.68;;;4.20;61.80;;;;;;5028587;28;20029;-66
2022/03/10 03:59:45;;;;;;;22.58;14.95;;;4.20;61.80;;;;;;5028467;28;20465;-66
2022/03/10 04:02:10;;;;;;;25.27;15.60;;;4.20;61.90;;;;;;5025617;28;20029;-65
2022/03/10 04:04:36;;;;;;;30.35;16.08;;;4.10;62.00;;;;;;5025489;28;20496;-66
2022/03/10 04:07:01;;;;;;;28.02;15.45;;;4.10;62.10;;;;;;5028108;28;20393;-65
2022/03/10 04:09:27;;;;;;;25.42;15.27;;;4.10;62.20;;;;;;5028299;28;20029;-66
2022/03/10 04:11:52;;;;;;;25.60;16.10;;;4.00;62.30;;;;;;5025896;28;20029;-65
2022/03/10 04:14:19;;;;;;;25.23;15.35;;;4.00;62.50;;;;;;5027702;28;20087;-65
2022/03/10 04:16:45;;;;;;;25.63;15.10;;;4.00;63.30;;;;;;5028481;28;20026;-65
2022/03/10 04:19:11;;;;;;;28.90;16.60;;;3.90;62.70;;;;;;5028308;28;20021;-65
2022/03/10 04:21:36;;;;;;;24.45;14.40;;;3.90;62.70;;;;;;5028017;28;20031;-65
2022/03/10 04:24:02;;;;;;;26.25;15.68;;;3.90;62.80;;;;;;5028274;28;20025;-65
2022/03/10 04:26:28;;;;;;;23.48;14.65;;;3.90;62.80;;;;;;5022680;28;20342;-65
2022/03/10 04:28:54;;;;;;;25.02;14.88;;;3.90;62.70;;;;;;5022973;28;20265;-65
2022/03/10 04:31:20;;;;;;;24.02;14.02;;;3.90;62.40;;;;;;5027348;28;20026;-65
2022/03/10 04:33:45;;;;;;;22.75;13.55;;;3.90;62.20;;;;;;5030398;28;20032;-65
2022/03/10 04:36:11;;;;;;;22.20;14.65;;;4.00;62.10;;;;;;5032164;28;20029;-64
2022/03/10 04:38:37;;;;;;;24.80;14.73;;;3.90;61.90;;;;;;5031906;28;20060;-64
2022/03/10 04:41:03;;;;;;;25.95;15.85;;;3.90;61.60;;;;;;5029125;28;20107;-64
2022/03/10 04:43:29;;;;;;;25.58;14.55;;;3.90;61.50;;;;;;5031880;28;20508;-64
2022/03/10 04:45:55;;;;;;;26.88;14.90;;;3.90;61.50;;;;;;5031811;28;20045;-65
2022/03/10 04:48:20;;;;;;;22.60;14.00;;;3.90;61.60;;;;;;5031912;28;20492;-64
2022/03/10 04:50:47;;;;;;;22.67;14.63;;;3.90;61.50;;;;;;5025064;28;20084;-64
2022/03/10 04:53:13;;;;;;;28.70;15.85;;;3.90;61.50;;;;;;5030564;28;20021;-66
2022/03/10 04:55:39;;;;;;;25.88;15.10;;;3.90;61.60;;;;;;5028628;28;20041;-66
2022/03/10 04:58:05;;;;;;;24.73;15.38;;;3.80;61.60;;;;;;5031765;28;20025;-66
2022/03/10 05:00:31;;;;;;;24.65;14.45;;;3.90;61.60;;;;;;5031679;28;20123;-66
2022/03/10 05:02:57;;;;;;;24.25;14.73;;;3.80;61.50;;;;;;5031449;28;20061;-67
2022/03/10 05:05:22;;;;;;;26.88;15.35;;;3.90;61.50;;;;;;5031432;28;20111;-67
2022/03/10 05:07:48;;;;;;;25.35;13.88;;;3.90;61.50;;;;;;5028779;28;20018;-67
2022/03/10 05:10:15;;;;;;;26.25;16.05;;;3.80;61.30;;;;;;5031408;28;20036;-67
2022/03/10 05:13:01;;;;;;;24.15;15.57;;;3.90;61.40;;;;;;5031078;28;20029;-67
2022/03/10 05:15:30;;;;;;;24.95;14.57;;;3.90;61.30;;;;;;5026645;28;20028;-67
2022/03/10 05:17:56;;;;;;;24.35;14.00;;;3.80;61.20;;;;;;5030382;28;20030;-67
2022/03/10 05:20:24;;;;;;;24.85;15.40;;;3.80;61.20;;;;;;5031408;28;20033;-67
2022/03/10 05:22:50;;;;;;;23.92;15.18;;;3.80;61.40;;;;;;5031069;28;20560;-66
2022/03/10 05:25:17;;;;;;;23.92;14.77;;;3.80;61.40;;;;;;5028120;28;20033;-67
2022/03/10 05:27:43;;;;;;;28.42;14.68;;;3.80;61.40;;;;;;5031366;28;20030;-66
2022/03/10 05:30:09;;;;;;;23.73;13.68;;;3.80;61.30;;;;;;5011565;28;20021;-67
2022/03/10 05:32:35;;;;;;;26.13;14.95;;;3.80;61.30;;;;;;5029914;28;20028;-67
2022/03/10 05:35:02;;;;;;;27.30;14.75;;;3.80;61.30;;;;;;5030855;28;20400;-67
2022/03/10 05:37:28;;;;;;;26.55;15.15;;;3.80;61.40;;;;;;5031021;28;20100;-67
2022/03/10 05:39:54;;;;;;;25.17;15.18;;;3.80;61.30;;;;;;5030963;28;20028;-67
2022/03/10 05:42:19;;;;;;;29.00;16.27;;;3.70;61.30;;;;;;5012696;28;20029;-67
2022/03/10 05:44:45;;;;;;;26.63;14.55;;;3.70;61.50;;;;;;5012013;28;20044;-67
2022/03/10 05:47:10;;;;;;;28.17;15.13;;;3.70;61.40;;;;;;5028027;28;20363;-67
2022/03/10 05:49:36;;;;;;;29.25;14.85;;;3.70;61.40;;;;;;5028074;28;20521;-66
2022/03/10 05:52:03;;;;;;;25.55;15.13;;;3.70;61.20;;;;;;5030044;28;20052;-66
2022/03/10 05:54:28;;;;;;;26.17;15.68;;;3.70;61.10;;;;;;5030767;28;20387;-67
2022/03/10 05:56:54;;;;;;;22.60;13.65;;;3.70;61.10;;;;;;5030936;28;20028;-66
2022/03/10 05:59:19;;;;;;;25.30;15.52;;;3.70;61.10;;;;;;5012333;28;20026;-66
2022/03/10 06:01:46;;;;;;;25.52;15.00;;;3.70;60.80;;;;;;5010218;28;20421;-67
2022/03/10 06:04:11;;;;;;;26.80;15.65;;;3.70;60.80;;;;;;5027718;28;20048;-66
2022/03/10 06:06:37;;;;;;;24.98;14.73;;;3.70;60.80;;;;;;5031080;28;20021;-67
2022/03/10 06:09:03;;;;;;;25.45;14.68;;;3.70;60.80;;;;;;5016183;28;20076;-67
2022/03/10 06:11:28;;;;;;;22.83;14.00;;;3.70;60.80;;;;;;5034082;28;20033;-67
2022/03/10 06:13:54;;;;;;;24.90;14.40;;;3.70;60.70;;;;;;5033962;28;20064;-68
2022/03/10 06:16:20;;;;;;;26.52;15.38;;;3.70;60.60;;;;;;5033997;28;20029;-67
2022/03/10 06:18:45;;;;;;;25.90;14.38;;;3.70;60.50;;;;;;5032962;28;20033;-67
2022/03/10 06:21:11;;;;;;;20.77;12.82;;;3.70;60.40;;;;;;5033934;28;20041;-68
2022/03/10 06:23:36;;;;;;;21.50;12.88;;;3.80;60.90;;;;;;5033901;28;20499;-67
2022/03/10 06:26:02;;;;;;;23.35;14.82;;;3.80;60.10;;;;;;5033970;28;20037;-67
2022/03/10 06:28:29;;;;;;;24.60;14.13;;;3.80;60.00;;;;;;5033873;28;20061;-67
2022/03/10 06:30:55;;;;;;;23.73;14.18;;;3.80;59.90;;;;;;5033862;28;20025;-67
2022/03/10 06:33:21;;;;;;;23.02;13.55;;;3.80;59.80;;;;;;5016066;28;20025;-67
2022/03/10 06:35:46;;;;;;;20.38;12.30;;;3.90;59.80;;;;;;5033706;28;20036;-67
2022/03/10 06:38:12;;;;;;;24.70;14.32;;;3.90;59.70;;;;;;5032510;28;20112;-67
2022/03/10 06:40:37;;;;;;;21.90;13.05;;;3.90;59.60;;;;;;5033346;28;20061;-67
2022/03/10 06:43:03;;;;;;;22.88;13.40;;;3.90;59.50;;;;;;5032035;28;20084;-67
2022/03/10 06:45:29;;;;;;;19.98;12.23;;;3.90;59.50;;;;;;5033247;28;20025;-68
2022/03/10 06:47:54;;;;;;;24.73;14.85;;;3.90;59.30;;;;;;5015191;28;20026;-67
2022/03/10 06:50:20;;;;;;;23.88;13.55;;;4.00;59.30;;;;;;5033042;28;20029;-66
2022/03/10 06:52:46;;;;;;;23.02;14.38;;;4.00;59.10;;;;;;5032098;28;20048;-67
2022/03/10 06:55:12;;;;;;;23.75;14.48;;;4.00;59.10;;;;;;5031580;28;20025;-67
2022/03/10 06:57:37;;;;;;;28.05;14.70;;;4.00;59.00;;;;;;5031398;28;20034;-67
2022/03/10 07:00:05;;;;;;;25.63;15.00;;;4.10;58.90;;;;;;5033332;28;20037;-65
2022/03/10 07:02:30;;;;;;;29.50;14.85;;;4.10;58.90;;;;;;5015455;28;20035;-65
2022/03/10 07:04:57;;;;;;;25.67;15.05;;;4.10;59.00;;;;;;5032917;28;20030;-65
2022/03/10 07:07:22;;;;;;;26.75;15.82;;;4.20;58.90;;;;;;5033039;28;20034;-65
2022/03/10 07:09:48;;;;;;;22.75;14.02;;;4.20;59.00;;;;;;5033041;28;20033;-65
2022/03/10 07:12:13;;;;;;;24.65;14.68;;;4.20;58.80;;;;;;5032964;28;20029;-65
2022/03/10 07:14:39;;;;;;;26.60;15.15;;;4.30;58.80;;;;;;5031730;28;20033;-65
2022/03/10 07:17:05;;;;;;;23.73;14.35;;;4.30;58.70;;;;;;5033324;28;20469;-65
2022/03/10 07:19:30;;;;;;;30.05;17.35;;;4.40;58.60;;;;;;5032301;28;20022;-65
2022/03/10 07:21:56;;;;;;;27.00;16.52;;;4.40;58.80;;;;;;5032620;28;20056;-65
2022/03/10 07:24:21;;;;;;;25.10;14.23;;;4.50;58.70;;;;;;5031946;28;20504;-65
2022/03/10 07:26:47;;;;;;;23.63;14.35;;;4.50;58.70;;;;;;5032551;28;20109;-65
2022/03/10 07:29:13;;;;;;;25.23;16.48;;;4.60;58.70;;;;;;5032620;28;20026;-65
2022/03/10 07:31:39;;;;;;;27.38;14.85;;;4.70;59.00;;;;;;5031893;28;20025;-66
2022/03/10 07:34:04;;;;;;;27.42;15.73;;;4.70;58.20;;;;;;5032163;28;20034;-65
2022/03/10 07:36:30;;;;;;;26.05;15.10;;;4.80;57.80;;;;;;5014615;28;20116;-65
2022/03/10 07:38:55;;;;;;;24.35;14.85;;;4.90;58.10;;;;;;5032604;28;20172;-65
2022/03/10 07:41:21;;;;;;;26.33;15.90;;;5.00;57.90;;;;;;5032391;28;20029;-65
2022/03/10 07:43:46;;;;;;;21.92;14.90;;;5.00;58.30;;;;;;5032562;28;20034;-65
2022/03/10 07:46:12;;;;;;;29.38;15.82;;;5.10;57.90;;;;;;5030773;28;20021;-65
2022/03/10 07:48:38;;;;;;;27.90;15.43;;;5.20;57.40;;;;;;5007668;28;20026;-64
2022/03/10 07:51:03;;;;;;;25.75;15.52;;;5.30;57.10;;;;;;5030613;28;20045;-64
2022/03/10 07:53:29;;;;;;;26.67;15.13;;;5.30;56.90;;;;;;5030632;28;20025;-65
2022/03/10 07:55:56;;;;;;;25.70;15.00;;;5.40;56.60;;;;;;5030562;28;20469;-65
2022/03/10 07:58:25;;;;;;;24.70;14.98;;;5.40;56.60;;;;;;5030625;28;20025;-65
2022/03/10 08:00:54;;;;;;;26.20;15.52;;;5.50;56.50;;;;;;5016468;28;20034;-64
2022/03/10 08:03:21;;;;;;;26.00;15.38;;;5.60;56.60;;;;;;5012178;28;20405;-65
2022/03/10 08:05:47;;;;;;;28.73;15.95;;;5.60;56.70;;;;;;5012387;28;20037;-65
2022/03/10 08:08:13;;;;;;;26.27;15.95;;;5.70;56.50;;;;;;5012042;28;20022;-65
2022/03/10 08:10:39;;;;;;;24.38;14.55;;;5.80;56.70;;;;;;5012366;28;20014;-65
2022/03/10 08:13:05;;;;;;;26.70;16.02;;;5.90;56.80;;;;;;5012310;28;20073;-65
2022/03/10 08:15:30;;;;;;;25.83;16.60;;;6.00;57.00;;;;;;5011098;28;20034;-65
2022/03/10 08:17:56;;;;;;;26.00;16.52;;;6.00;57.10;;;;;;5010421;28;20051;-65
2022/03/10 08:20:23;;;;;;;27.25;15.68;;;6.20;57.10;;;;;;5032193;28;20033;-65
2022/03/10 08:22:49;;;;;;;32.55;16.67;;;6.20;57.20;;;;;;5014144;28;20029;-66
2022/03/10 08:25:14;;;;;;;29.60;16.63;;;6.30;56.70;;;;;;5030668;28;20366;-65
2022/03/10 08:27:40;;;;;;;27.08;15.05;;;6.40;56.20;;;;;;5012512;28;20025;-65
2022/03/10 08:30:06;;;;;;;25.90;16.10;;;6.50;56.70;;;;;;5031507;28;20104;-66
2022/03/10 08:32:31;;;;;;;28.10;15.70;;;6.50;57.10;;;;;;5032238;28;20021;-65
2022/03/10 08:34:57;;;;;;;27.23;15.75;;;6.70;56.90;;;;;;5031637;28;20033;-66
2022/03/10 08:37:23;;;;;;;29.08;17.20;;;6.70;56.60;;;;;;5021675;28;20021;-65
2022/03/10 08:39:48;;;;;;;25.45;15.48;;;6.80;56.60;;;;;;5017244;28;20035;-65
2022/03/10 08:42:14;;;;;;;27.23;16.60;;;6.90;56.60;;;;;;5031701;28;20366;-66
2022/03/10 08:44:39;;;;;;;27.25;15.85;;;7.00;56.60;;;;;;5031554;28;20500;-65
2022/03/10 08:47:05;;;;;;;26.80;16.55;;;7.10;56.50;;;;;;5031651;28;20096;-66
2022/03/10 08:49:31;;;;;;;29.23;16.75;;;7.20;56.40;;;;;;5031549;28;20029;-65
2022/03/10 08:51:56;;;;;;;24.88;16.23;;;7.20;56.30;;;;;;5031481;28;20057;-65
2022/03/10 08:54:22;;;;;;;28.92;16.80;;;7.40;56.40;;;;;;5031481;28;20025;-66
2022/03/10 08:56:47;;;;;;;28.52;17.92;;;7.40;55.90;;;;;;5013974;28;20484;-65
2022/03/10 08:59:13;;;;;;;29.77;16.90;;;7.50;55.80;;;;;;5031741;28;20036;-66
2022/03/10 09:01:40;;;;;;;27.77;17.83;;;7.60;56.40;;;;;;5031337;28;20435;-65
2022/03/10 09:04:05;;;;;;;28.02;16.77;;;7.70;55.70;;;;;;5031437;28;20140;-66
2022/03/10 09:06:32;;;;;;;26.02;16.80;;;7.80;55.70;;;;;;5031692;28;20501;-66
2022/03/10 09:08:57;;;;;;;27.85;16.92;;;7.90;55.50;;;;;;5031454;28;20021;-65
2022/03/10 09:11:24;;;;;;;26.65;16.50;;;8.00;55.90;;;;;;5031326;28;20097;-65
2022/03/10 09:13:49;;;;;;;30.88;18.75;;;8.00;55.20;;;;;;5031893;28;20021;-65
2022/03/10 09:16:19;;;;;;;28.85;17.60;;;8.20;54.80;;;;;;5031197;28;20038;-65
2022/03/10 09:18:45;;;;;;;28.92;17.50;;;8.20;55.50;;;;;;5031607;28;20120;-65
2022/03/10 09:21:13;;;;;;;27.38;16.73;;;8.30;55.60;;;;;;5034328;28;20151;-65
2022/03/10 09:23:38;;;;;;;27.08;16.83;;;8.50;55.20;;;;;;5034864;28;20036;-65
2022/03/10 09:26:04;;;;;;;39.38;18.63;;;8.60;55.20;;;;;;5034839;28;20033;-65
2022/03/10 09:28:30;;;;;;;28.23;17.73;;;8.70;55.30;;;;;;5035235;28;20053;-65
2022/03/10 09:30:55;;;;;;;32.88;18.25;;;8.80;54.50;;;;;;5034852;28;20351;-64
2022/03/10 09:33:21;;;;;;;29.63;17.40;;;8.90;54.70;;;;;;5034942;28;20029;-65
2022/03/10 09:35:47;;;;;;;28.90;16.55;;;9.00;54.20;;;;;;5034769;28;20053;-66
2022/03/10 09:38:12;;;;;;;28.95;18.98;;;9.10;54.20;;;;;;5034833;28;20097;-65
2022/03/10 09:40:38;;;;;;;27.17;17.10;;;9.20;54.10;;;;;;5034630;28;20103;-65
2022/03/10 09:43:04;;;;;;;28.20;17.85;;;9.30;54.20;;;;;;5017044;28;20056;-65
2022/03/10 09:45:30;;;;;;;26.95;17.10;;;9.50;54.10;;;;;;5034297;28;20056;-65
2022/03/10 09:47:56;;;;;;;29.17;18.38;;;9.60;54.00;;;;;;5016819;28;20029;-65
2022/03/10 09:50:22;;;;;;;29.00;18.10;;;9.80;53.90;;;;;;5034545;28;20029;-64
2022/03/10 09:52:48;;;;;;;29.50;17.95;;;9.90;53.60;;;;;;5034614;28;20041;-66
2022/03/10 09:55:16;;;;;;;28.70;19.08;;;10.00;52.50;;;;;;5034398;28;20036;-65
2022/03/10 09:57:43;;;;;;;30.25;19.13;;;10.20;52.20;;;;;;5016617;28;20471;-65
2022/03/10 10:00:10;;;;;;;31.80;19.90;;;10.30;51.90;;;;;;5034350;28;20025;-65
2022/03/10 10:02:37;;;;;;;31.00;19.50;;;10.40;51.70;;;;;;5016851;28;20029;-66
2022/03/10 10:05:19;;;;;;;31.77;20.30;;;10.50;51.60;;;;;;5034123;28;20428;-66
2022/03/10 10:08:13;;;;;;;31.45;19.38;;;10.70;50.90;;;;;;5015957;28;20025;-66
2022/03/10 10:10:43;;;;;;;30.02;19.67;;;10.80;51.50;;;;;;5032171;28;20096;-65
2022/03/10 10:13:09;;;;;;;32.67;20.20;;;10.90;50.60;;;;;;5034055;28;20421;-65
2022/03/10 10:15:39;;;;;;;31.77;20.60;;;11.10;50.20;;;;;;5033934;28;20061;-65
2022/03/10 10:18:12;;;;;;;31.23;19.95;;;11.30;49.30;;;;;;5034154;28;20492;-65
2022/03/10 10:20:49;;;;;;;35.20;22.30;;;11.40;48.80;;;;;;5034020;28;20033;-66
2022/03/10 10:23:21;;;;;;;37.10;21.40;;;11.50;48.90;;;;;;5032172;28;20034;-66
2022/03/10 10:25:55;;;;;;;31.08;20.25;;;11.60;48.70;;;;;;5026443;28;20095;-66
2022/03/10 10:28:27;;;;;;;29.15;20.10;;;11.90;48.70;;;;;;5032123;28;20025;-65
2022/03/10 10:30:55;;;;;;;34.88;19.40;;;12.10;48.60;;;;;;5031821;28;20017;-66
2022/03/10 10:33:22;;;;;;;32.92;19.75;;;12.30;48.80;;;;;;5031852;28;20060;-66
2022/03/10 10:35:47;;;;;;;33.10;21.38;;;12.60;47.80;;;;;;5032246;28;20021;-66
2022/03/10 10:38:30;;;;;;;30.85;19.15;;;12.90;47.60;;;;;;5031884;28;20037;-66
2022/03/10 10:41:15;;;;;;;26.85;18.40;;;13.30;47.20;;;;;;5031930;28;20262;-66
2022/03/10 10:43:42;;;;;;;32.22;21.20;;;14.00;46.00;;;;;;5031763;28;20019;-66
2022/03/10 10:46:08;;;;;;;32.60;22.25;;;15.70;43.70;;;;;;5031724;28;20029;-66
2022/03/10 10:48:46;;;;;;;27.85;19.15;;;18.10;40.10;;;;;;5031872;28;20018;-66
2022/03/10 10:51:12;;;;;;;29.77;19.48;;;20.60;38.00;;;;;;5022404;28;20057;-65
2022/03/10 10:53:39;;;;;;;28.17;20.33;;;22.70;34.90;;;;;;5024801;28;20167;-65
2022/03/10 10:56:05;;;;;;;30.67;22.35;;;24.10;31.60;;;;;;5018185;28;20017;-67
2022/03/10 10:58:31;;;;;;;24.73;19.45;;;24.20;30.10;;;;;;5031504;28;20121;-67
2022/03/10 11:00:57;;;;;;;26.15;21.17;;;24.40;31.00;;;;;;5028947;28;20030;-66
2022/03/10 11:03:24;;;;;;;23.77;20.23;;;25.00;29.70;;;;;;5031362;28;20488;-66
2022/03/10 11:05:50;;;;;;;23.48;18.40;;;24.90;29.70;;;;;;5031337;28;20033;-67
2022/03/10 11:08:18;;;;;;;27.77;22.27;;;25.10;29.90;;;;;;5031019;28;20021;-65
2022/03/10 11:10:43;;;;;;;25.50;20.20;;;25.80;28.70;;;;;;5031331;28;20432;-67
2022/03/10 11:13:10;;;;;;;23.75;18.17;;;25.80;29.10;;;;;;5028147;28;20465;-66
2022/03/10 11:15:39;;;;;;;24.65;20.55;;;26.90;29.30;;;;;;5031141;28;20504;-66
2022/03/10 11:18:05;;;;;;;24.17;18.92;;;28.00;28.00;;;;;;5031305;28;20027;-66
2022/03/10 11:20:34;;;;;;;23.23;18.30;;;28.30;27.70;;;;;;5031350;28;20445;-67
2022/03/10 11:22:59;;;;;;;20.45;17.27;;;28.50;27.60;;;;;;5016311;28;20056;-67
2022/03/10 11:25:45;;;;;;;22.13;16.92;;;29.40;27.40;;;;;;5031008;28;20520;-67
2022/03/10 11:28:23;;;;;;;22.13;19.17;;;30.20;27.40;;;;;;5031134;28;20018;-67
2022/03/10 11:30:52;;;;;;;21.60;18.35;;;30.50;26.00;;;;;;5030338;28;20026;-67
2022/03/10 11:33:18;;;;;;;22.42;19.40;;;29.20;26.50;;;;;;5030903;28;20040;-67
2022/03/10 11:35:49;;;;;;;19.90;17.17;;;28.80;27.00;;;;;;5031068;28;20057;-66
2022/03/10 11:38:16;;;;;;;18.83;16.83;;;29.40;27.40;;;;;;5026601;28;20079;-67
2022/03/10 11:40:52;;;;;;;15.70;13.90;;;32.20;26.80;;;;;;5031577;28;20031;-67
2022/03/10 11:43:30;;;;;;;21.13;15.43;;;34.50;26.30;;;;;;5030214;28;20071;-67
2022/03/10 11:46:15;;;;;;;18.13;16.20;;;35.30;25.30;;;;;;5018424;28;20434;-67
2022/03/10 11:48:40;;;;;;;16.73;14.88;;;35.40;24.50;;;;;;5030804;28;20107;-68
2022/03/10 11:51:17;;;;;;;16.95;15.10;;;35.60;24.90;;;;;;5012956;28;20495;-67
2022/03/10 11:54:04;;;;;;;20.35;18.25;;;36.50;24.80;;;;;;5031065;28;20083;-68
2022/03/10 11:56:33;;;;;;;19.73;16.42;;;36.00;24.20;;;;;;5031097;28;20128;-67
2022/03/10 11:59:21;;;;;;;20.45;18.33;;;35.80;24.30;;;;;;5030854;28;20025;-67
2022/03/10 12:01:47;;;;;;;;;;;35.00;23.80;;;;;;5032770;28;20033;-67
2022/03/10 12:04:15;;;;;;;17.65;15.70;;;33.40;24.50;;;;;;5030887;28;19905;-67
2022/03/10 12:06:46;;;;;;;;;;;33.00;25.40;;;;;;5032612;28;20358;-67
2022/03/10 12:09:25;;;;;;;17.95;15.55;;;34.00;25.20;;;;;;5030391;28;20011;-68
2022/03/10 12:11:52;;;;;;;21.52;18.30;;;35.20;24.50;;;;;;5030272;28;20045;-67
2022/03/10 12:14:30;;;;;;;19.98;16.92;;;34.70;23.80;;;;;;5029819;28;20378;-66
2022/03/10 12:16:56;;;;;;;18.17;16.08;;;32.70;24.60;;;;;;5032453;28;20017;-67
2022/03/10 12:20:00;;;;;;;17.63;15.48;;;31.50;25.20;;;;;;5031950;28;20036;-67
2022/03/10 12:22:29;;;;;;;21.20;18.50;;;31.30;25.60;;;;;;5031729;28;20033;-66
2022/03/10 12:25:36;;;;;;;23.83;19.08;;;30.40;25.40;;;;;;5031883;28;20080;-66
2022/03/10 12:28:02;;;;;;;21.50;17.50;;;29.20;25.70;;;;;;4932178;29;20095;-67
2022/03/10 12:30:29;;;;;;;21.92;17.95;;;27.90;26.50;;;;;;5015227;28;20521;-67
2022/03/10 12:32:56;;;;;;;22.30;18.80;;;27.50;26.90;;;;;;5014461;28;20400;-67
2022/03/10 12:35:30;;;;;;;22.60;18.23;;;26.80;27.20;;;;;;5030630;28;20424;-67
2022/03/10 12:37:56;;;;;;;20.63;16.40;;;26.10;27.30;;;;;;5031814;28;20053;-66
2022/03/10 12:40:25;;;;;;;25.10;19.38;;;26.10;28.00;;;;;;5023763;28;20057;-67